sensor_id;sensor_type;location;lat;lon;timestamp;temperature;humidity
3186;DHT22;1604;53.700;10.252;2023-06-05T00:02:37;10.80;99.90
3186;DHT22;1604;53.700;10.252;2023-06-05T00:05:39;10.80;99.90
3186;DHT22;1604;53.700;10.252;2023-06-05T00:08:41;10.70;99.90
3186;DHT22;1604;53.700;10.252;2023-06-05T00:11:44;10.70;99.90
3186;DHT22;1604;53.700;10.252;2023-06-05T00:14:46;10.60;99.90
3186;DHT22;1604;53.700;10.252;2023-06-05T00:17:49;10.60;99.90
3186;DHT22;1604;53.700;10.252;2023-06-05T00:20:52;10.50;99.90
3186;DHT22;1604;53.700;10.252;2023-06-05T00:23:54;10.50;99.90
3186;DHT22;1604;53.700;10.252;2023-06-05T00:26:56;10.40;99.90
3186;DHT22;1604;53.700;10.252;2023-06-05T00:29:58;10.40;99.90
3186;DHT22;1604;53.700;10.252;2023-06-05T00:33:02;10.30;99.90
3186;DHT22;1604;53.700;10.252;2023-06-05T00:36:05;10.30;99.90
3186;DHT22;1604;53.700;10.252;2023-06-05T00:39:07;10.30;99.90
3186;DHT22;1604;53.700;10.252;2023-06-05T00:42:10;10.20;99.90
3186;DHT22;1604;53.700;10.252;2023-06-05T00:45:12;10.20;99.90
3186;DHT22;1604;53.700;10.252;2023-06-05T00:48:17;10.20;99.90
3186;DHT22;1604;53.700;10.252;2023-06-05T00:51:19;10.10;99.90
3186;DHT22;1604;53.700;10.252;2023-06-05T00:54:22;10.00;99.90
3186;DHT22;1604;53.700;10.252;2023-06-05T00:57:25;10.00;99.90
3186;DHT22;1604;53.700;10.252;2023-06-05T01:00:28;9.90;99.90
3186;DHT22;1604;53.700;10.252;2023-06-05T01:03:32;9.90;99.90
3186;DHT22;1604;53.700;10.252;2023-06-05T01:06:36;9.90;99.90
3186;DHT22;1604;53.700;10.252;2023-06-05T01:09:41;9.80;99.90
3186;DHT22;1604;53.700;10.252;2023-06-05T01:12:49;9.80;99.90
3186;DHT22;1604;53.700;10.252;2023-06-05T01:15:54;9.70;99.90
3186;DHT22;1604;53.700;10.252;2023-06-05T01:18:59;9.70;99.90
3186;DHT22;1604;53.700;10.252;2023-06-05T01:22:03;9.70;99.90
3186;DHT22;1604;53.700;10.252;2023-06-05T01:25:08;9.60;99.90
3186;DHT22;1604;53.700;10.252;2023-06-05T01:28:15;9.60;99.90
3186;DHT22;1604;53.700;10.252;2023-06-05T01:31:21;9.50;99.90
3186;DHT22;1604;53.700;10.252;2023-06-05T01:34:24;9.50;99.90
3186;DHT22;1604;53.700;10.252;2023-06-05T01:37:27;9.40;99.90
3186;DHT22;1604;53.700;10.252;2023-06-05T01:40:32;9.40;99.90
3186;DHT22;1604;53.700;10.252;2023-06-05T01:43:36;9.40;99.90
3186;DHT22;1604;53.700;10.252;2023-06-05T01:46:38;9.30;99.90
3186;DHT22;1604;53.700;10.252;2023-06-05T01:49:39;9.30;99.90
3186;DHT22;1604;53.700;10.252;2023-06-05T01:52:42;9.20;99.90
3186;DHT22;1604;53.700;10.252;2023-06-05T01:55:47;9.20;99.90
3186;DHT22;1604;53.700;10.252;2023-06-05T01:58:49;9.10;99.90
3186;DHT22;1604;53.700;10.252;2023-06-05T02:01:53;9.10;99.90
3186;DHT22;1604;53.700;10.252;2023-06-05T02:04:55;9.00;99.90
3186;DHT22;1604;53.700;10.252;2023-06-05T02:08:00;9.00;99.90
3186;DHT22;1604;53.700;10.252;2023-06-05T02:11:07;9.00;99.90
3186;DHT22;1604;53.700;10.252;2023-06-05T02:14:10;8.90;99.90
3186;DHT22;1604;53.700;10.252;2023-06-05T02:17:13;8.90;99.90
3186;DHT22;1604;53.700;10.252;2023-06-05T02:20:17;8.90;99.90
3186;DHT22;1604;53.700;10.252;2023-06-05T02:23:19;8.80;99.90
3186;DHT22;1604;53.700;10.252;2023-06-05T02:26:22;8.70;99.90
3186;DHT22;1604;53.700;10.252;2023-06-05T02:29:24;8.70;99.90
3186;DHT22;1604;53.700;10.252;2023-06-05T02:32:26;8.70;99.90
3186;DHT22;1604;53.700;10.252;2023-06-05T02:35:29;8.60;99.90
3186;DHT22;1604;53.700;10.252;2023-06-05T02:38:31;8.60;99.90
3186;DHT22;1604;53.700;10.252;2023-06-05T02:41:35;8.60;99.90
3186;DHT22;1604;53.700;10.252;2023-06-05T02:44:37;8.50;99.90
3186;DHT22;1604;53.700;10.252;2023-06-05T02:47:39;8.50;99.90
3186;DHT22;1604;53.700;10.252;2023-06-05T02:50:41;8.50;99.90
3186;DHT22;1604;53.700;10.252;2023-06-05T02:53:43;8.40;99.90
3186;DHT22;1604;53.700;10.252;2023-06-05T02:56:46;8.40;99.90
3186;DHT22;1604;53.700;10.252;2023-06-05T02:59:48;8.30;99.90
3186;DHT22;1604;53.700;10.252;2023-06-05T03:02:50;8.30;99.90
3186;DHT22;1604;53.700;10.252;2023-06-05T03:05:52;8.30;99.90
3186;DHT22;1604;53.700;10.252;2023-06-05T03:08:53;8.30;99.90
3186;DHT22;1604;53.700;10.252;2023-06-05T03:11:58;8.30;99.90
3186;DHT22;1604;53.700;10.252;2023-06-05T03:15:00;8.20;99.90
3186;DHT22;1604;53.700;10.252;2023-06-05T03:18:04;8.20;99.90
3186;DHT22;1604;53.700;10.252;2023-06-05T03:21:06;8.20;99.90
3186;DHT22;1604;53.700;10.252;2023-06-05T03:24:11;8.20;99.90
3186;DHT22;1604;53.700;10.252;2023-06-05T03:27:16;8.20;99.90
3186;DHT22;1604;53.700;10.252;2023-06-05T03:30:18;8.20;99.90
3186;DHT22;1604;53.700;10.252;2023-06-05T03:33:20;8.20;99.90
3186;DHT22;1604;53.700;10.252;2023-06-05T03:36:21;8.20;99.90
3186;DHT22;1604;53.700;10.252;2023-06-05T03:39:24;8.20;99.90
3186;DHT22;1604;53.700;10.252;2023-06-05T03:42:28;8.20;99.90
3186;DHT22;1604;53.700;10.252;2023-06-05T03:45:30;8.20;99.90
3186;DHT22;1604;53.700;10.252;2023-06-05T03:48:32;8.20;99.90
3186;DHT22;1604;53.700;10.252;2023-06-05T03:51:34;8.20;99.90
3186;DHT22;1604;53.700;10.252;2023-06-05T03:54:36;8.20;99.90
3186;DHT22;1604;53.700;10.252;2023-06-05T03:57:40;8.20;99.90
3186;DHT22;1604;53.700;10.252;2023-06-05T04:00:44;8.20;99.90
3186;DHT22;1604;53.700;10.252;2023-06-05T04:03:46;8.30;99.90
3186;DHT22;1604;53.700;10.252;2023-06-05T04:06:48;8.30;99.90
3186;DHT22;1604;53.700;10.252;2023-06-05T04:09:50;8.30;99.90
3186;DHT22;1604;53.700;10.252;2023-06-05T04:12:53;8.30;99.90
3186;DHT22;1604;53.700;10.252;2023-06-05T04:15:55;8.40;99.90
3186;DHT22;1604;53.700;10.252;2023-06-05T04:18:58;8.50;99.90
3186;DHT22;1604;53.700;10.252;2023-06-05T04:22:00;8.60;99.90
3186;DHT22;1604;53.700;10.252;2023-06-05T04:25:03;8.70;99.90
3186;DHT22;1604;53.700;10.252;2023-06-05T04:28:07;8.80;99.90
3186;DHT22;1604;53.700;10.252;2023-06-05T04:31:12;9.00;99.90
3186;DHT22;1604;53.700;10.252;2023-06-05T04:34:14;9.10;99.90
3186;DHT22;1604;53.700;10.252;2023-06-05T04:37:18;9.30;99.90
3186;DHT22;1604;53.700;10.252;2023-06-05T04:40:20;9.40;99.90
3186;DHT22;1604;53.700;10.252;2023-06-05T04:43:23;9.60;99.90
3186;DHT22;1604;53.700;10.252;2023-06-05T04:46:25;9.70;99.90
3186;DHT22;1604;53.700;10.252;2023-06-05T04:49:27;9.80;99.90
3186;DHT22;1604;53.700;10.252;2023-06-05T04:52:30;10.00;99.90
3186;DHT22;1604;53.700;10.252;2023-06-05T04:55:33;10.20;99.90
3186;DHT22;1604;53.700;10.252;2023-06-05T04:58:37;10.40;99.90
3186;DHT22;1604;53.700;10.252;2023-06-05T05:01:40;10.60;99.90
3186;DHT22;1604;53.700;10.252;2023-06-05T05:04:42;10.80;99.90
3186;DHT22;1604;53.700;10.252;2023-06-05T05:07:44;11.00;99.90
3186;DHT22;1604;53.700;10.252;2023-06-05T05:10:46;11.20;99.90
3186;DHT22;1604;53.700;10.252;2023-06-05T05:13:50;11.50;99.90
3186;DHT22;1604;53.700;10.252;2023-06-05T05:16:51;11.70;99.90
3186;DHT22;1604;53.700;10.252;2023-06-05T05:19:53;11.90;99.90
3186;DHT22;1604;53.700;10.252;2023-06-05T05:22:55;12.10;99.90
3186;DHT22;1604;53.700;10.252;2023-06-05T05:25:59;12.30;99.90
3186;DHT22;1604;53.700;10.252;2023-06-05T05:29:02;12.50;99.90
3186;DHT22;1604;53.700;10.252;2023-06-05T05:32:04;12.70;99.90
3186;DHT22;1604;53.700;10.252;2023-06-05T05:35:07;12.80;99.90
3186;DHT22;1604;53.700;10.252;2023-06-05T05:38:09;13.00;99.90
3186;DHT22;1604;53.700;10.252;2023-06-05T05:41:11;13.20;99.90
3186;DHT22;1604;53.700;10.252;2023-06-05T05:44:15;13.40;99.90
3186;DHT22;1604;53.700;10.252;2023-06-05T05:47:17;13.60;99.90
3186;DHT22;1604;53.700;10.252;2023-06-05T05:50:19;13.80;99.90
3186;DHT22;1604;53.700;10.252;2023-06-05T05:53:23;14.00;99.90
3186;DHT22;1604;53.700;10.252;2023-06-05T05:56:25;14.20;99.90
3186;DHT22;1604;53.700;10.252;2023-06-05T05:59:28;14.40;99.90
3186;DHT22;1604;53.700;10.252;2023-06-05T06:02:30;14.70;99.90
3186;DHT22;1604;53.700;10.252;2023-06-05T06:05:32;14.90;99.90
3186;DHT22;1604;53.700;10.252;2023-06-05T06:08:36;15.10;99.90
3186;DHT22;1604;53.700;10.252;2023-06-05T06:11:38;15.20;99.90
3186;DHT22;1604;53.700;10.252;2023-06-05T06:14:41;15.40;99.90
3186;DHT22;1604;53.700;10.252;2023-06-05T06:17:43;15.60;99.90
3186;DHT22;1604;53.700;10.252;2023-06-05T06:20:45;15.80;99.90
3186;DHT22;1604;53.700;10.252;2023-06-05T06:23:47;16.10;99.90
3186;DHT22;1604;53.700;10.252;2023-06-05T06:26:49;16.30;99.80
3186;DHT22;1604;53.700;10.252;2023-06-05T06:29:54;16.50;99.40
3186;DHT22;1604;53.700;10.252;2023-06-05T06:32:57;16.60;99.50
3186;DHT22;1604;53.700;10.252;2023-06-05T06:35:59;16.80;99.10
3186;DHT22;1604;53.700;10.252;2023-06-05T06:39:01;16.90;98.40
3186;DHT22;1604;53.700;10.252;2023-06-05T06:42:05;17.10;98.40
3186;DHT22;1604;53.700;10.252;2023-06-05T06:45:09;17.20;98.30
3186;DHT22;1604;53.700;10.252;2023-06-05T06:48:11;17.30;98.20
3186;DHT22;1604;53.700;10.252;2023-06-05T06:51:13;17.50;97.80
3186;DHT22;1604;53.700;10.252;2023-06-05T06:54:15;17.60;97.20
3186;DHT22;1604;53.700;10.252;2023-06-05T06:57:17;17.70;96.50
3186;DHT22;1604;53.700;10.252;2023-06-05T07:00:20;17.90;95.90
3186;DHT22;1604;53.700;10.252;2023-06-05T07:03:23;18.20;95.00
3186;DHT22;1604;53.700;10.252;2023-06-05T07:06:26;18.30;94.30
3186;DHT22;1604;53.700;10.252;2023-06-05T07:09:28;18.50;94.50
3186;DHT22;1604;53.700;10.252;2023-06-05T07:12:30;18.70;93.10
3186;DHT22;1604;53.700;10.252;2023-06-05T07:15:33;18.80;91.10
3186;DHT22;1604;53.700;10.252;2023-06-05T07:18:35;19.00;92.20
3186;DHT22;1604;53.700;10.252;2023-06-05T07:21:38;19.10;91.10
3186;DHT22;1604;53.700;10.252;2023-06-05T07:24:40;19.40;89.60
3186;DHT22;1604;53.700;10.252;2023-06-05T07:27:43;19.60;87.90
3186;DHT22;1604;53.700;10.252;2023-06-05T07:30:47;19.80;87.20
3186;DHT22;1604;53.700;10.252;2023-06-05T07:33:50;19.90;86.80
3186;DHT22;1604;53.700;10.252;2023-06-05T07:36:53;20.00;87.20
3186;DHT22;1604;53.700;10.252;2023-06-05T07:39:55;20.10;85.30
3186;DHT22;1604;53.700;10.252;2023-06-05T07:42:57;20.20;83.90
3186;DHT22;1604;53.700;10.252;2023-06-05T07:46:01;20.40;84.50
3186;DHT22;1604;53.700;10.252;2023-06-05T07:49:05;20.50;84.10
3186;DHT22;1604;53.700;10.252;2023-06-05T07:52:07;20.70;82.30
3186;DHT22;1604;53.700;10.252;2023-06-05T07:55:09;20.80;82.10
3186;DHT22;1604;53.700;10.252;2023-06-05T07:58:10;21.00;78.70
3186;DHT22;1604;53.700;10.252;2023-06-05T08:01:14;21.20;78.40
3186;DHT22;1604;53.700;10.252;2023-06-05T08:04:16;21.30;79.10
3186;DHT22;1604;53.700;10.252;2023-06-05T08:07:18;21.60;79.60
3186;DHT22;1604;53.700;10.252;2023-06-05T08:10:20;21.70;78.50
3186;DHT22;1604;53.700;10.252;2023-06-05T08:13:23;21.90;77.30
3186;DHT22;1604;53.700;10.252;2023-06-05T08:16:26;22.10;75.40
3186;DHT22;1604;53.700;10.252;2023-06-05T08:19:28;22.40;73.60
3186;DHT22;1604;53.700;10.252;2023-06-05T08:22:30;22.60;70.50
3186;DHT22;1604;53.700;10.252;2023-06-05T08:25:32;22.70;68.60
3186;DHT22;1604;53.700;10.252;2023-06-05T08:28:33;22.80;69.80
3186;DHT22;1604;53.700;10.252;2023-06-05T08:31:37;23.00;68.40
3186;DHT22;1604;53.700;10.252;2023-06-05T08:34:39;23.00;68.60
3186;DHT22;1604;53.700;10.252;2023-06-05T08:37:40;23.20;70.60
3186;DHT22;1604;53.700;10.252;2023-06-05T08:40:43;23.60;65.90
3186;DHT22;1604;53.700;10.252;2023-06-05T08:43:48;23.60;64.00
3186;DHT22;1604;53.700;10.252;2023-06-05T08:46:52;23.80;65.00
3186;DHT22;1604;53.700;10.252;2023-06-05T08:49:56;23.90;64.90
3186;DHT22;1604;53.700;10.252;2023-06-05T08:52:59;24.10;63.10
3186;DHT22;1604;53.700;10.252;2023-06-05T08:56:02;24.20;61.80
3186;DHT22;1604;53.700;10.252;2023-06-05T08:59:04;24.40;62.30
3186;DHT22;1604;53.700;10.252;2023-06-05T09:02:09;24.30;62.80
3186;DHT22;1604;53.700;10.252;2023-06-05T09:05:12;24.20;62.70
3186;DHT22;1604;53.700;10.252;2023-06-05T09:08:14;24.30;63.10
3186;DHT22;1604;53.700;10.252;2023-06-05T09:11:24;24.50;62.20
3186;DHT22;1604;53.700;10.252;2023-06-05T09:14:27;24.60;61.50
3186;DHT22;1604;53.700;10.252;2023-06-05T09:17:30;24.70;62.50
3186;DHT22;1604;53.700;10.252;2023-06-05T09:20:32;24.70;60.70
3186;DHT22;1604;53.700;10.252;2023-06-05T09:23:35;24.80;62.40
3186;DHT22;1604;53.700;10.252;2023-06-05T09:26:49;25.10;60.20
3186;DHT22;1604;53.700;10.252;2023-06-05T09:30:02;25.20;62.40
3186;DHT22;1604;53.700;10.252;2023-06-05T09:33:12;25.30;61.60
3186;DHT22;1604;53.700;10.252;2023-06-05T09:36:15;25.50;60.60
3186;DHT22;1604;53.700;10.252;2023-06-05T09:39:18;25.60;59.10
3186;DHT22;1604;53.700;10.252;2023-06-05T09:42:31;25.60;60.60
3186;DHT22;1604;53.700;10.252;2023-06-05T09:45:41;25.70;60.00
3186;DHT22;1604;53.700;10.252;2023-06-05T09:48:58;25.90;59.10
3186;DHT22;1604;53.700;10.252;2023-06-05T09:52:00;26.20;58.30
3186;DHT22;1604;53.700;10.252;2023-06-05T09:55:04;26.40;56.30
3186;DHT22;1604;53.700;10.252;2023-06-05T09:58:12;26.50;56.10
3186;DHT22;1604;53.700;10.252;2023-06-05T10:01:16;26.70;56.80
3186;DHT22;1604;53.700;10.252;2023-06-05T10:04:25;26.80;55.30
3186;DHT22;1604;53.700;10.252;2023-06-05T10:07:28;26.90;55.20
3186;DHT22;1604;53.700;10.252;2023-06-05T10:10:31;26.90;55.40
3186;DHT22;1604;53.700;10.252;2023-06-05T10:13:34;26.80;55.60
3186;DHT22;1604;53.700;10.252;2023-06-05T10:16:37;26.70;55.40
3186;DHT22;1604;53.700;10.252;2023-06-05T10:19:42;26.70;56.20
3186;DHT22;1604;53.700;10.252;2023-06-05T10:22:46;26.90;56.60
3186;DHT22;1604;53.700;10.252;2023-06-05T10:25:48;27.10;54.60
3186;DHT22;1604;53.700;10.252;2023-06-05T10:29:01;27.20;54.30
3186;DHT22;1604;53.700;10.252;2023-06-05T10:32:15;27.40;54.20
3186;DHT22;1604;53.700;10.252;2023-06-05T10:35:28;27.70;51.70
3186;DHT22;1604;53.700;10.252;2023-06-05T10:38:37;27.80;52.60
3186;DHT22;1604;53.700;10.252;2023-06-05T10:41:39;27.90;52.10
3186;DHT22;1604;53.700;10.252;2023-06-05T10:44:42;27.90;51.40
3186;DHT22;1604;53.700;10.252;2023-06-05T10:47:53;27.80;51.60
3186;DHT22;1604;53.700;10.252;2023-06-05T10:51:32;27.70;53.70
3186;DHT22;1604;53.700;10.252;2023-06-05T10:54:56;27.80;51.20
3186;DHT22;1604;53.700;10.252;2023-06-05T10:58:09;27.80;51.40
3186;DHT22;1604;53.700;10.252;2023-06-05T11:01:18;27.70;51.90
3186;DHT22;1604;53.700;10.252;2023-06-05T11:04:21;27.70;51.90
3186;DHT22;1604;53.700;10.252;2023-06-05T11:07:27;27.70;51.20
3186;DHT22;1604;53.700;10.252;2023-06-05T11:10:30;27.80;50.40
3186;DHT22;1604;53.700;10.252;2023-06-05T11:13:56;27.70;52.90
3186;DHT22;1604;53.700;10.252;2023-06-05T11:16:58;27.80;51.50
3186;DHT22;1604;53.700;10.252;2023-06-05T11:20:01;27.80;50.70
3186;DHT22;1604;53.700;10.252;2023-06-05T11:23:08;27.80;49.60
3186;DHT22;1604;53.700;10.252;2023-06-05T11:26:39;27.90;50.60
3186;DHT22;1604;53.700;10.252;2023-06-05T11:29:42;27.90;49.20
3186;DHT22;1604;53.700;10.252;2023-06-05T11:32:45;28.00;50.10
3186;DHT22;1604;53.700;10.252;2023-06-05T11:35:48;28.20;49.40
3186;DHT22;1604;53.700;10.252;2023-06-05T11:38:55;28.30;48.50
3186;DHT22;1604;53.700;10.252;2023-06-05T11:41:58;28.30;49.10
3186;DHT22;1604;53.700;10.252;2023-06-05T11:45:00;28.30;49.00
3186;DHT22;1604;53.700;10.252;2023-06-05T11:48:06;28.30;49.40
3186;DHT22;1604;53.700;10.252;2023-06-05T11:51:09;28.20;48.70
3186;DHT22;1604;53.700;10.252;2023-06-05T11:54:24;28.20;48.80
3186;DHT22;1604;53.700;10.252;2023-06-05T11:57:26;28.30;48.90
3186;DHT22;1604;53.700;10.252;2023-06-05T12:00:28;28.40;48.40
3186;DHT22;1604;53.700;10.252;2023-06-05T12:03:30;28.50;48.90
3186;DHT22;1604;53.700;10.252;2023-06-05T12:06:33;28.70;48.20
3186;DHT22;1604;53.700;10.252;2023-06-05T12:09:52;28.80;47.40
3186;DHT22;1604;53.700;10.252;2023-06-05T12:12:54;28.90;47.90
3186;DHT22;1604;53.700;10.252;2023-06-05T12:15:56;29.10;45.90
3186;DHT22;1604;53.700;10.252;2023-06-05T12:18:59;29.30;46.90
3186;DHT22;1604;53.700;10.252;2023-06-05T12:22:02;29.40;45.40
3186;DHT22;1604;53.700;10.252;2023-06-05T12:25:19;29.30;45.30
3186;DHT22;1604;53.700;10.252;2023-06-05T12:28:21;29.30;45.70
3186;DHT22;1604;53.700;10.252;2023-06-05T12:31:33;29.40;45.40
3186;DHT22;1604;53.700;10.252;2023-06-05T12:34:43;29.40;46.10
3186;DHT22;1604;53.700;10.252;2023-06-05T12:37:47;29.30;44.80
3186;DHT22;1604;53.700;10.252;2023-06-05T12:40:51;29.20;45.50
3186;DHT22;1604;53.700;10.252;2023-06-05T12:44:00;29.30;44.60
3186;DHT22;1604;53.700;10.252;2023-06-05T12:47:02;29.30;45.70
3186;DHT22;1604;53.700;10.252;2023-06-05T12:50:05;29.20;45.40
3186;DHT22;1604;53.700;10.252;2023-06-05T12:53:07;29.20;45.70
3186;DHT22;1604;53.700;10.252;2023-06-05T12:56:11;29.10;47.20
3186;DHT22;1604;53.700;10.252;2023-06-05T12:59:13;29.10;47.30
3186;DHT22;1604;53.700;10.252;2023-06-05T13:02:15;29.20;46.70
3186;DHT22;1604;53.700;10.252;2023-06-05T13:05:17;29.20;45.40
3186;DHT22;1604;53.700;10.252;2023-06-05T13:08:19;29.30;45.50
3186;DHT22;1604;53.700;10.252;2023-06-05T13:11:22;29.10;45.10
3186;DHT22;1604;53.700;10.252;2023-06-05T13:14:24;28.80;46.00
3186;DHT22;1604;53.700;10.252;2023-06-05T13:17:26;28.60;46.90
3186;DHT22;1604;53.700;10.252;2023-06-05T13:20:28;28.60;45.90
3186;DHT22;1604;53.700;10.252;2023-06-05T13:23:30;28.40;46.10
3186;DHT22;1604;53.700;10.252;2023-06-05T13:26:33;28.20;47.90
3186;DHT22;1604;53.700;10.252;2023-06-05T13:29:35;28.10;47.40
3186;DHT22;1604;53.700;10.252;2023-06-05T13:32:37;28.00;48.30
3186;DHT22;1604;53.700;10.252;2023-06-05T13:35:39;28.00;48.20
3186;DHT22;1604;53.700;10.252;2023-06-05T13:38:42;28.10;47.10
3186;DHT22;1604;53.700;10.252;2023-06-05T13:41:45;28.20;47.70
3186;DHT22;1604;53.700;10.252;2023-06-05T13:44:47;28.20;47.00
3186;DHT22;1604;53.700;10.252;2023-06-05T13:47:49;28.20;47.30
3186;DHT22;1604;53.700;10.252;2023-06-05T13:50:52;28.20;47.10
3186;DHT22;1604;53.700;10.252;2023-06-05T13:53:54;28.20;46.40
3186;DHT22;1604;53.700;10.252;2023-06-05T13:56:58;28.30;45.70
3186;DHT22;1604;53.700;10.252;2023-06-05T14:00:00;28.40;46.60
3186;DHT22;1604;53.700;10.252;2023-06-05T14:03:03;28.60;45.80
3186;DHT22;1604;53.700;10.252;2023-06-05T14:06:05;28.60;46.00
3186;DHT22;1604;53.700;10.252;2023-06-05T14:09:07;28.70;45.80
3186;DHT22;1604;53.700;10.252;2023-06-05T14:12:11;28.70;46.00
3186;DHT22;1604;53.700;10.252;2023-06-05T14:15:13;28.50;47.40
3186;DHT22;1604;53.700;10.252;2023-06-05T14:18:15;28.60;47.10
3186;DHT22;1604;53.700;10.252;2023-06-05T14:21:17;28.50;45.60
3186;DHT22;1604;53.700;10.252;2023-06-05T14:24:19;28.60;47.30
3186;DHT22;1604;53.700;10.252;2023-06-05T14:27:23;28.50;47.30
3186;DHT22;1604;53.700;10.252;2023-06-05T14:30:25;28.70;46.80
3186;DHT22;1604;53.700;10.252;2023-06-05T14:33:27;28.90;47.50
3186;DHT22;1604;53.700;10.252;2023-06-05T14:36:29;29.00;45.90
3186;DHT22;1604;53.700;10.252;2023-06-05T14:39:31;28.80;45.50
3186;DHT22;1604;53.700;10.252;2023-06-05T14:42:35;28.80;46.20
3186;DHT22;1604;53.700;10.252;2023-06-05T14:45:36;28.80;47.90
3186;DHT22;1604;53.700;10.252;2023-06-05T14:48:38;28.70;46.20
3186;DHT22;1604;53.700;10.252;2023-06-05T14:51:42;28.70;44.70
3186;DHT22;1604;53.700;10.252;2023-06-05T14:54:44;28.60;45.30
3186;DHT22;1604;53.700;10.252;2023-06-05T14:57:47;28.50;46.80
3186;DHT22;1604;53.700;10.252;2023-06-05T15:00:49;28.50;46.80
3186;DHT22;1604;53.700;10.252;2023-06-05T15:03:51;28.30;47.20
3186;DHT22;1604;53.700;10.252;2023-06-05T15:06:53;28.20;46.10
3186;DHT22;1604;53.700;10.252;2023-06-05T15:09:55;28.10;47.50
3186;DHT22;1604;53.700;10.252;2023-06-05T15:12:58;28.10;46.70
3186;DHT22;1604;53.700;10.252;2023-06-05T15:16:00;28.10;47.50
3186;DHT22;1604;53.700;10.252;2023-06-05T15:19:02;28.00;47.50
3186;DHT22;1604;53.700;10.252;2023-06-05T15:22:04;27.90;46.80
3186;DHT22;1604;53.700;10.252;2023-06-05T15:25:07;27.80;47.10
3186;DHT22;1604;53.700;10.252;2023-06-05T15:28:10;27.80;47.10
3186;DHT22;1604;53.700;10.252;2023-06-05T15:31:13;27.80;47.00
3186;DHT22;1604;53.700;10.252;2023-06-05T15:34:15;27.70;46.50
3186;DHT22;1604;53.700;10.252;2023-06-05T15:37:17;27.50;47.50
3186;DHT22;1604;53.700;10.252;2023-06-05T15:40:19;27.40;48.40
3186;DHT22;1604;53.700;10.252;2023-06-05T15:43:23;27.20;48.00
3186;DHT22;1604;53.700;10.252;2023-06-05T15:46:25;27.10;48.10
3186;DHT22;1604;53.700;10.252;2023-06-05T15:49:26;27.00;48.40
3186;DHT22;1604;53.700;10.252;2023-06-05T15:52:28;26.80;48.40
3186;DHT22;1604;53.700;10.252;2023-06-05T15:55:31;26.60;49.30
3186;DHT22;1604;53.700;10.252;2023-06-05T15:58:39;26.50;48.40
3186;DHT22;1604;53.700;10.252;2023-06-05T16:01:41;26.40;49.20
3186;DHT22;1604;53.700;10.252;2023-06-05T16:04:43;26.20;50.30
3186;DHT22;1604;53.700;10.252;2023-06-05T16:07:44;26.20;50.40
3186;DHT22;1604;53.700;10.252;2023-06-05T16:10:47;26.20;49.30
3186;DHT22;1604;53.700;10.252;2023-06-05T16:13:50;26.10;49.00
3186;DHT22;1604;53.700;10.252;2023-06-05T16:16:52;26.00;49.00
3186;DHT22;1604;53.700;10.252;2023-06-05T16:19:54;26.00;50.40
3186;DHT22;1604;53.700;10.252;2023-06-05T16:22:56;25.90;51.10
3186;DHT22;1604;53.700;10.252;2023-06-05T16:25:58;25.80;51.30
3186;DHT22;1604;53.700;10.252;2023-06-05T16:29:01;25.80;50.80
3186;DHT22;1604;53.700;10.252;2023-06-05T16:32:03;25.70;51.80
3186;DHT22;1604;53.700;10.252;2023-06-05T16:35:06;25.60;52.30
3186;DHT22;1604;53.700;10.252;2023-06-05T16:38:08;25.60;52.60
3186;DHT22;1604;53.700;10.252;2023-06-05T16:41:10;25.50;51.70
3186;DHT22;1604;53.700;10.252;2023-06-05T16:44:13;25.50;52.20
3186;DHT22;1604;53.700;10.252;2023-06-05T16:47:15;25.40;52.40
3186;DHT22;1604;53.700;10.252;2023-06-05T16:50:17;25.40;52.70
3186;DHT22;1604;53.700;10.252;2023-06-05T16:53:19;25.30;53.60
3186;DHT22;1604;53.700;10.252;2023-06-05T16:56:21;25.30;52.90
3186;DHT22;1604;53.700;10.252;2023-06-05T16:59:24;25.30;52.90
3186;DHT22;1604;53.700;10.252;2023-06-05T17:02:26;25.30;55.90
3186;DHT22;1604;53.700;10.252;2023-06-05T17:05:28;25.00;60.30
3186;DHT22;1604;53.700;10.252;2023-06-05T17:08:31;24.80;61.40
3186;DHT22;1604;53.700;10.252;2023-06-05T17:11:32;24.50;62.30
3186;DHT22;1604;53.700;10.252;2023-06-05T17:14:36;24.30;62.90
3186;DHT22;1604;53.700;10.252;2023-06-05T17:17:38;24.00;63.30
3186;DHT22;1604;53.700;10.252;2023-06-05T17:20:40;23.70;64.30
3186;DHT22;1604;53.700;10.252;2023-06-05T17:23:42;23.50;64.70
3186;DHT22;1604;53.700;10.252;2023-06-05T17:26:44;23.20;65.30
3186;DHT22;1604;53.700;10.252;2023-06-05T17:29:47;23.00;66.20
3186;DHT22;1604;53.700;10.252;2023-06-05T17:32:49;22.90;66.40
3186;DHT22;1604;53.700;10.252;2023-06-05T17:35:51;22.80;66.70
3186;DHT22;1604;53.700;10.252;2023-06-05T17:38:53;22.60;67.40
3186;DHT22;1604;53.700;10.252;2023-06-05T17:41:54;22.50;67.60
3186;DHT22;1604;53.700;10.252;2023-06-05T17:44:58;22.30;68.30
3186;DHT22;1604;53.700;10.252;2023-06-05T17:48:00;22.30;68.70
3186;DHT22;1604;53.700;10.252;2023-06-05T17:51:02;22.20;69.20
3186;DHT22;1604;53.700;10.252;2023-06-05T17:54:04;22.10;69.60
3186;DHT22;1604;53.700;10.252;2023-06-05T17:57:06;22.00;69.80
3186;DHT22;1604;53.700;10.252;2023-06-05T18:00:11;21.90;69.60
3186;DHT22;1604;53.700;10.252;2023-06-05T18:03:13;21.70;69.50
3186;DHT22;1604;53.700;10.252;2023-06-05T18:06:16;21.60;70.00
3186;DHT22;1604;53.700;10.252;2023-06-05T18:09:18;21.50;70.30
3186;DHT22;1604;53.700;10.252;2023-06-05T18:12:20;21.40;71.00
3186;DHT22;1604;53.700;10.252;2023-06-05T18:15:23;21.30;71.40
3186;DHT22;1604;53.700;10.252;2023-06-05T18:18:25;21.20;71.90
3186;DHT22;1604;53.700;10.252;2023-06-05T18:21:28;21.20;72.20
3186;DHT22;1604;53.700;10.252;2023-06-05T18:24:30;21.10;72.80
3186;DHT22;1604;53.700;10.252;2023-06-05T18:27:32;21.00;72.80
3186;DHT22;1604;53.700;10.252;2023-06-05T18:30:36;20.90;72.90
3186;DHT22;1604;53.700;10.252;2023-06-05T18:33:37;20.80;73.50
3186;DHT22;1604;53.700;10.252;2023-06-05T18:36:39;20.70;74.50
3186;DHT22;1604;53.700;10.252;2023-06-05T18:39:41;20.60;74.80
3186;DHT22;1604;53.700;10.252;2023-06-05T18:42:43;20.50;74.90
3186;DHT22;1604;53.700;10.252;2023-06-05T18:45:47;20.40;75.40
3186;DHT22;1604;53.700;10.252;2023-06-05T18:48:49;20.40;75.80
3186;DHT22;1604;53.700;10.252;2023-06-05T18:51:51;20.30;76.30
3186;DHT22;1604;53.700;10.252;2023-06-05T18:54:54;20.20;76.70
3186;DHT22;1604;53.700;10.252;2023-06-05T18:57:56;20.10;76.90
3186;DHT22;1604;53.700;10.252;2023-06-05T19:01:01;20.10;76.90
3186;DHT22;1604;53.700;10.252;2023-06-05T19:04:03;20.00;77.20
3186;DHT22;1604;53.700;10.252;2023-06-05T19:07:06;20.00;77.50
3186;DHT22;1604;53.700;10.252;2023-06-05T19:10:08;19.90;77.90
3186;DHT22;1604;53.700;10.252;2023-06-05T19:13:10;19.80;78.10
3186;DHT22;1604;53.700;10.252;2023-06-05T19:16:13;19.70;78.70
3186;DHT22;1604;53.700;10.252;2023-06-05T19:19:16;19.60;78.90
3186;DHT22;1604;53.700;10.252;2023-06-05T19:22:17;19.50;79.50
3186;DHT22;1604;53.700;10.252;2023-06-05T19:25:19;19.40;79.80
3186;DHT22;1604;53.700;10.252;2023-06-05T19:28:22;19.30;80.20
3186;DHT22;1604;53.700;10.252;2023-06-05T19:31:25;19.30;80.70
3186;DHT22;1604;53.700;10.252;2023-06-05T19:34:27;19.20;81.20
3186;DHT22;1604;53.700;10.252;2023-06-05T19:37:29;19.10;81.50
3186;DHT22;1604;53.700;10.252;2023-06-05T19:40:31;19.00;82.00
3186;DHT22;1604;53.700;10.252;2023-06-05T19:43:33;18.90;82.50